Airfield :







YOU CAN JOIN US ON...

 
LOGIN :

Register | Disclaimer

   EN    FR    IT 

 









Legend :    VFR   Marginal VFR   IFR   Intensive IFR   Very Intensive IFR
Visi :
Ceiling :
>= 8 km
>= 3000ft
5 to 8 km
1000 to 3000 ft
1500m to 5 km
500 to 1000 ft
800 to 1500m
200 to 500 ft
< 800m
< 200 ft
Symbols :   Thunderstorms  Fog  Heavy snow  Heavy precipitations  Wind > 20 kt







- Airport Elevation : 1194 ft


KPSF - Pittsfield Municipal

CURRENT METAR :
  • 250054Z AUTO 23003KT 10SM CLR 21/14 A2986 RMK AO2 SLP086 T02060139

EXPIRED METARs :
  • 242354Z AUTO 13003KT 10SM CLR 22/14 A2985 RMK AO2 SLP086 T02170144 10261 20217 56004
  • 242254Z AUTO 18003KT 10SM CLR 23/14 A2985 RMK AO2 SLP088 T02330139

TAF KPSF
Valid from the 25 at 00:00 until the 26 at 00:00 UTC


242331Z 2500/2524 VRB03KT P6SM BKN200
FM250900 VRB03KT P6SM OVC045
FM251200 15006KT 5SM -SHRA BR OVC020
TEMPO 2513/2515 2SM TSRA OVC010CB
FM252200 26007KT P6SM BKN025
KZBW FIR / North America



MET'MAP, your aeronautical weather chart ! - Copyright ORBIFLY December 2007 - Disclaimer

ORBIFLY MET'MAP TEAM :

Programming & Development : Alexandra Zaïnal
Concept & Development : Baudouin d'Aumeries
Co-Development & Prog : Marc-Olivier Méhu
Technical & hardware support : Manuel Goepfert

Contact : metmap@orbifly.com




SOURCES & CREDITS :

   NOAA